createdAt,value
2023-03-02T00:00:10.330Z,-0.37
2023-03-02T00:01:12.665Z,-0.36
2023-03-02T00:02:18.021Z,-0.38
2023-03-02T00:03:19.586Z,-0.37
2023-03-02T00:04:44.183Z,-0.35
2023-03-02T00:05:46.621Z,-0.35
2023-03-02T00:06:51.044Z,-0.36
2023-03-02T00:07:52.689Z,-0.36
2023-03-02T00:08:54.358Z,-0.32
2023-03-02T00:09:55.929Z,-0.29
2023-03-02T00:10:57.973Z,-0.27
2023-03-02T00:11:59.771Z,-0.25
2023-03-02T00:13:01.369Z,-0.23
2023-03-02T00:14:02.964Z,-0.21
2023-03-02T00:15:04.908Z,-0.19
2023-03-02T00:16:07.185Z,-0.20
2023-03-02T00:17:08.830Z,-0.19
2023-03-02T00:18:10.385Z,-0.22
2023-03-02T00:19:11.941Z,-0.22
2023-03-02T00:20:13.969Z,-0.20
2023-03-02T00:21:15.634Z,-0.27
2023-03-02T00:22:17.164Z,-0.36
2023-03-02T00:23:18.763Z,-0.44
2023-03-02T00:24:20.326Z,-0.59
2023-03-02T00:25:21.837Z,-0.66
2023-03-02T00:26:23.783Z,-0.74
2023-03-02T00:27:25.283Z,-0.87
2023-03-02T00:28:26.827Z,-0.89
2023-03-02T00:29:28.388Z,-0.92
2023-03-02T00:30:29.917Z,-0.96
2023-03-02T00:31:31.584Z,-1.04
2023-03-02T00:32:33.209Z,-1.06
2023-03-02T00:33:35.197Z,-1.13
2023-03-02T00:34:36.790Z,-1.18
2023-03-02T00:35:41.392Z,-1.19
2023-03-02T00:36:43.305Z,-1.20
2023-03-02T00:37:45.088Z,-1.21
2023-03-02T00:38:47.242Z,-1.27
2023-03-02T00:39:51.794Z,-1.32
2023-03-02T00:40:53.458Z,-1.35
2023-03-02T00:41:55.001Z,-1.35
2023-03-02T00:42:56.604Z,-1.38
2023-03-02T00:43:58.131Z,-1.31
2023-03-02T00:44:59.755Z,-1.24
2023-03-02T00:46:09.061Z,-1.17
2023-03-02T00:47:10.856Z,-1.13
2023-03-02T00:48:12.399Z,-1.06
2023-03-02T00:49:13.937Z,-1.02
2023-03-02T00:50:15.524Z,-0.95
2023-03-02T00:51:18.036Z,-0.90
2023-03-02T00:52:19.546Z,-0.83
2023-03-02T00:53:21.079Z,-0.79
2023-03-02T00:54:22.661Z,-0.80
2023-03-02T00:55:24.586Z,-0.80
2023-03-02T00:56:26.286Z,-0.84
2023-03-02T00:57:28.274Z,-0.85
2023-03-02T00:58:31.312Z,-0.86
2023-03-02T00:59:33.419Z,-0.88
2023-03-02T01:00:58.093Z,-0.90
2023-03-02T01:02:00.858Z,-0.92
2023-03-02T01:03:05.029Z,-0.90
2023-03-02T01:04:06.569Z,-0.91
2023-03-02T01:05:08.490Z,-0.92
2023-03-02T01:06:19.075Z,-0.90
2023-03-02T01:07:20.994Z,-0.94
2023-03-02T01:08:23.183Z,-0.95
2023-03-02T01:09:25.792Z,-0.97
2023-03-02T01:10:27.336Z,-0.94
2023-03-02T01:11:28.910Z,-0.93
2023-03-02T01:12:31.585Z,-0.95
2023-03-02T01:13:33.098Z,-0.94
2023-03-02T01:14:36.291Z,-0.92
2023-03-02T01:15:37.820Z,-0.93
2023-03-02T01:16:39.436Z,-0.90
2023-03-02T01:17:41.126Z,-0.90
2023-03-02T01:18:42.667Z,-0.89
2023-03-02T01:19:44.482Z,-0.86
2023-03-02T01:20:46.027Z,-0.85
2023-03-02T01:21:47.574Z,-0.97
2023-03-02T01:22:49.145Z,-1.02
2023-03-02T01:23:50.669Z,-1.03
2023-03-02T01:24:52.270Z,-1.07
2023-03-02T01:25:53.811Z,-1.11
2023-03-02T01:26:55.538Z,-1.24
2023-03-02T01:27:57.057Z,-1.31
2023-03-02T01:28:58.598Z,-1.40
2023-03-02T01:30:00.176Z,-1.45
2023-03-02T01:31:01.737Z,-1.38
2023-03-02T01:32:04.081Z,-1.38
2023-03-02T01:33:05.597Z,-1.41
2023-03-02T01:34:07.423Z,-1.44
2023-03-02T01:35:09.440Z,-1.52
2023-03-02T01:36:10.943Z,-1.49
2023-03-02T01:37:12.776Z,-1.53
2023-03-02T01:38:14.503Z,-1.53
2023-03-02T01:39:16.219Z,-1.51
2023-03-02T01:40:17.917Z,-1.52
2023-03-02T01:41:20.174Z,-1.47
2023-03-02T01:42:21.722Z,-1.49
2023-03-02T01:43:23.319Z,-1.44
2023-03-02T01:44:44.905Z,-1.35
2023-03-02T01:45:53.840Z,-1.28
2023-03-02T01:47:33.636Z,-1.20
2023-03-02T01:48:42.879Z,-1.22
2023-03-02T01:49:49.664Z,-1.21
2023-03-02T01:50:53.124Z,-1.25
2023-03-02T01:51:54.970Z,-1.24
2023-03-02T01:52:57.052Z,-1.25
2023-03-02T01:54:06.339Z,-1.29
2023-03-02T01:55:12.494Z,-1.24
2023-03-02T01:56:20.398Z,-1.24
2023-03-02T01:57:29.009Z,-1.30
2023-03-02T01:58:34.375Z,-1.36
2023-03-02T01:59:39.750Z,-1.37
2023-03-02T02:00:41.872Z,-1.37
2023-03-02T02:01:47.181Z,-1.36
2023-03-02T02:02:50.065Z,-1.35
2023-03-02T02:03:51.902Z,-1.36
2023-03-02T02:04:55.804Z,-1.38
2023-03-02T02:06:23.449Z,-1.41
2023-03-02T02:07:25.054Z,-1.43
2023-03-02T02:08:28.226Z,-1.41
2023-03-02T02:09:34.535Z,-1.43
2023-03-02T02:10:36.700Z,-1.41
2023-03-02T02:11:38.617Z,-1.42
2023-03-02T02:12:40.430Z,-1.48
2023-03-02T02:13:43.142Z,-1.46
2023-03-02T02:14:45.656Z,-1.43
2023-03-02T02:15:47.242Z,-1.41
2023-03-02T02:16:48.943Z,-1.46
2023-03-02T02:17:52.243Z,-1.44
2023-03-02T02:18:53.867Z,-1.46
2023-03-02T02:20:07.457Z,-1.48
2023-03-02T02:21:09.477Z,-1.46
2023-03-02T02:22:16.008Z,-1.45
2023-03-02T02:23:45.319Z,-1.50
2023-03-02T02:24:53.388Z,-1.50
2023-03-02T02:26:22.965Z,-1.45
2023-03-02T02:27:25.780Z,-1.50
2023-03-02T02:28:30.881Z,-1.47
2023-03-02T02:29:38.271Z,-1.50
2023-03-02T02:30:40.878Z,-1.50
2023-03-02T02:31:57.554Z,-1.53
2023-03-02T02:33:00.616Z,-1.61
2023-03-02T02:34:09.726Z,-1.63
2023-03-02T02:35:24.589Z,-1.68
2023-03-02T02:36:33.059Z,-1.70
2023-03-02T02:37:44.874Z,-1.72
2023-03-02T02:38:54.234Z,-1.75
2023-03-02T02:39:57.303Z,-1.77
2023-03-02T02:41:02.774Z,-1.78
2023-03-02T02:42:13.860Z,-1.81
2023-03-02T02:43:18.967Z,-1.86
2023-03-02T02:44:20.689Z,-1.89
2023-03-02T02:45:27.239Z,-1.87
2023-03-02T02:46:29.406Z,-1.89
2023-03-02T02:47:32.256Z,-1.93
2023-03-02T02:48:34.516Z,-1.91
2023-03-02T02:49:39.039Z,-1.89
2023-03-02T02:50:40.857Z,-1.87
2023-03-02T02:51:42.446Z,-1.88
2023-03-02T02:52:46.375Z,-1.86
2023-03-02T02:53:54.870Z,-1.87
2023-03-02T02:54:58.404Z,-1.86
2023-03-02T02:56:00.704Z,-1.85
2023-03-02T02:57:03.908Z,-1.80
2023-03-02T02:58:32.260Z,-1.82
2023-03-02T02:59:38.068Z,-1.79
2023-03-02T03:00:39.737Z,-1.75
2023-03-02T03:01:42.335Z,-1.72
2023-03-02T03:02:47.910Z,-1.70
2023-03-02T03:03:56.196Z,-1.67
2023-03-02T03:04:57.751Z,-1.67
2023-03-02T03:06:02.678Z,-1.65
2023-03-02T03:07:06.373Z,-1.63
2023-03-02T03:08:10.075Z,-1.61
2023-03-02T03:09:13.090Z,-1.59
2023-03-02T03:10:30.654Z,-1.60
2023-03-02T03:11:35.742Z,-1.58
2023-03-02T03:12:39.842Z,-1.56
2023-03-02T03:13:43.775Z,-1.54
2023-03-02T03:14:46.173Z,-1.55
2023-03-02T03:15:48.061Z,-1.53
2023-03-02T03:16:51.353Z,-1.54
2023-03-02T03:17:57.964Z,-1.54
2023-03-02T03:19:12.998Z,-1.54
2023-03-02T03:20:17.175Z,-1.57
2023-03-02T03:21:19.373Z,-1.50
2023-03-02T03:22:20.984Z,-1.50
2023-03-02T03:23:24.501Z,-1.51
2023-03-02T03:24:28.148Z,-1.56
2023-03-02T03:25:30.019Z,-1.51
2023-03-02T03:26:31.847Z,-1.52
2023-03-02T03:27:33.563Z,-1.59
2023-03-02T03:28:36.872Z,-1.66
2023-03-02T03:29:42.942Z,-1.68
2023-03-02T03:30:47.636Z,-1.69
2023-03-02T03:31:49.179Z,-1.72
2023-03-02T03:32:51.145Z,-1.68
2023-03-02T03:33:54.343Z,-1.70
2023-03-02T03:34:56.318Z,-1.73
2023-03-02T03:36:02.228Z,-1.77
2023-03-02T03:37:04.231Z,-1.76
2023-03-02T03:38:08.980Z,-1.75
2023-03-02T03:39:12.100Z,-1.81
2023-03-02T03:40:14.485Z,-1.86
2023-03-02T03:41:18.179Z,-1.90
2023-03-02T03:42:20.149Z,-1.92
2023-03-02T03:43:21.877Z,-1.90
2023-03-02T03:44:27.262Z,-1.87
2023-03-02T03:45:30.438Z,-1.84
2023-03-02T03:46:32.546Z,-1.93
2023-03-02T03:47:34.745Z,-2.27
2023-03-02T03:48:37.602Z,-2.44
2023-03-02T03:49:39.133Z,-2.40
2023-03-02T03:50:41.800Z,-2.49
2023-03-02T03:51:43.377Z,-2.55
2023-03-02T03:52:45.208Z,-2.55
2023-03-02T03:53:54.420Z,-2.57
2023-03-02T03:54:59.902Z,-2.55
2023-03-02T03:56:03.883Z,-2.46
2023-03-02T03:57:05.943Z,-2.47
2023-03-02T03:58:07.626Z,-2.43
2023-03-02T03:59:12.151Z,-2.35
2023-03-02T04:00:19.288Z,-2.27
2023-03-02T04:01:26.105Z,-2.17
2023-03-02T04:02:27.701Z,-2.13
2023-03-02T04:03:29.408Z,-2.13
2023-03-02T04:04:34.267Z,-2.09
2023-03-02T04:05:39.806Z,-2.06
2023-03-02T04:06:41.780Z,-2.06
2023-03-02T04:07:43.372Z,-2.07
2023-03-02T04:08:44.969Z,-2.10
2023-03-02T04:09:46.727Z,-2.15
2023-03-02T04:10:49.636Z,-2.17
2023-03-02T04:11:55.205Z,-2.18
2023-03-02T04:12:57.303Z,-2.17
2023-03-02T04:13:58.918Z,-2.16
2023-03-02T04:15:00.560Z,-2.16
2023-03-02T04:16:02.455Z,-2.18
2023-03-02T04:17:05.065Z,-2.17
2023-03-02T04:18:07.945Z,-2.15
2023-03-02T04:19:11.289Z,-2.12
2023-03-02T04:20:16.768Z,-2.14
2023-03-02T04:21:20.854Z,-2.16
2023-03-02T04:22:22.941Z,-2.17
2023-03-02T04:23:24.506Z,-2.22
2023-03-02T04:24:26.101Z,-2.26
2023-03-02T04:25:30.567Z,-2.24
2023-03-02T04:26:44.930Z,-2.24
2023-03-02T04:27:51.048Z,-2.28
2023-03-02T04:28:52.819Z,-2.29
2023-03-02T04:29:55.248Z,-2.32
2023-03-02T04:30:57.099Z,-2.31
2023-03-02T04:31:58.833Z,-2.36
2023-03-02T04:33:01.790Z,-2.42
2023-03-02T04:34:04.889Z,-2.48
2023-03-02T04:35:08.298Z,-2.49
2023-03-02T04:36:10.409Z,-2.52
2023-03-02T04:37:12.086Z,-2.50
2023-03-02T04:38:13.748Z,-2.48
2023-03-02T04:39:17.971Z,-2.48
2023-03-02T04:40:23.634Z,-2.47
2023-03-02T04:41:25.174Z,-2.46
2023-03-02T04:42:26.716Z,-2.43
2023-03-02T04:43:28.246Z,-2.46
2023-03-02T04:44:29.758Z,-2.47
2023-03-02T04:45:31.648Z,-2.48
2023-03-02T04:46:33.497Z,-2.46
2023-03-02T04:47:35.252Z,-2.43
2023-03-02T04:48:36.776Z,-2.44
2023-03-02T04:49:38.386Z,-2.45
2023-03-02T04:50:39.961Z,-2.44
2023-03-02T04:51:44.171Z,-2.43
2023-03-02T04:52:45.860Z,-2.40
2023-03-02T04:53:47.383Z,-2.40
2023-03-02T04:54:48.932Z,-2.38
2023-03-02T04:55:50.439Z,-2.43
2023-03-02T04:56:52.486Z,-2.51
2023-03-02T04:57:54.165Z,-2.60
2023-03-02T04:58:56.388Z,-2.69
2023-03-02T04:59:57.924Z,-2.75
2023-03-02T05:00:59.450Z,-2.71
2023-03-02T05:02:01.078Z,-2.63
2023-03-02T05:03:03.322Z,-2.58
2023-03-02T05:04:05.114Z,-2.51
2023-03-02T05:05:07.313Z,-2.48
2023-03-02T05:06:09.694Z,-2.44
2023-03-02T05:07:11.203Z,-2.43
2023-03-02T05:08:12.744Z,-2.43
2023-03-02T05:09:14.358Z,-2.41
2023-03-02T05:10:17.096Z,-2.42
2023-03-02T05:11:19.764Z,-2.37
2023-03-02T05:12:21.293Z,-2.40
2023-03-02T05:13:22.813Z,-2.39
2023-03-02T05:14:25.577Z,-2.39
2023-03-02T05:15:30.237Z,-2.43
2023-03-02T05:16:34.524Z,-2.43
2023-03-02T05:17:36.216Z,-2.43
2023-03-02T05:18:37.721Z,-2.40
2023-03-02T05:19:39.274Z,-2.41
2023-03-02T05:20:40.778Z,-2.42
2023-03-02T05:21:42.705Z,-2.49
2023-03-02T05:22:44.264Z,-2.48
2023-03-02T05:23:45.811Z,-2.50
2023-03-02T05:24:47.309Z,-2.52
2023-03-02T05:25:49.998Z,-2.54
2023-03-02T05:26:51.523Z,-2.48
2023-03-02T05:27:53.126Z,-2.49
2023-03-02T05:28:54.666Z,-2.52
2023-03-02T05:29:56.247Z,-2.49
2023-03-02T05:30:57.750Z,-2.48
2023-03-02T05:31:59.362Z,-2.54
2023-03-02T05:33:00.898Z,-2.59
2023-03-02T05:34:05.781Z,-2.60
2023-03-02T05:35:07.655Z,-2.52
2023-03-02T05:36:09.231Z,-2.49
2023-03-02T05:37:10.777Z,-2.46
2023-03-02T05:38:12.720Z,-2.52
2023-03-02T05:39:14.228Z,-2.44
2023-03-02T05:40:20.102Z,-2.51
2023-03-02T05:41:22.062Z,-2.63
2023-03-02T05:42:23.927Z,-2.63
2023-03-02T05:43:25.610Z,-2.62
2023-03-02T05:44:27.128Z,-2.57
2023-03-02T05:45:32.804Z,-2.53
2023-03-02T05:46:34.676Z,-2.50
2023-03-02T05:47:36.427Z,-2.50
2023-03-02T05:48:38.158Z,-2.53
2023-03-02T05:49:39.702Z,-2.53
2023-03-02T05:50:41.540Z,-2.53
2023-03-02T05:51:43.073Z,-2.49
2023-03-02T05:52:44.650Z,-2.44
2023-03-02T05:53:46.187Z,-2.33
2023-03-02T05:54:47.707Z,-2.13
2023-03-02T05:55:50.187Z,-1.88
2023-03-02T05:56:51.709Z,-1.61
2023-03-02T05:57:53.241Z,-1.35
2023-03-02T05:58:54.783Z,-1.10
2023-03-02T05:59:56.300Z,-0.88
2023-03-02T06:00:58.033Z,-0.60
2023-03-02T06:01:59.905Z,-0.29
2023-03-02T06:03:01.488Z,-0.02
2023-03-02T06:04:03.105Z,0.25
2023-03-02T06:05:11.209Z,0.55
2023-03-02T06:06:12.799Z,0.82
2023-03-02T06:07:14.307Z,1.07
2023-03-02T06:08:15.911Z,1.33
2023-03-02T06:09:17.445Z,1.58
2023-03-02T06:10:19.153Z,1.80
2023-03-02T06:11:20.665Z,2.03
2023-03-02T06:12:22.182Z,2.28
2023-03-02T06:13:23.718Z,2.50
2023-03-02T06:14:25.239Z,2.70
2023-03-02T06:15:26.773Z,2.89
2023-03-02T06:16:28.396Z,3.04
2023-03-02T06:17:30.152Z,3.20
2023-03-02T06:18:31.714Z,3.36
2023-03-02T06:19:33.302Z,3.45
2023-03-02T06:20:34.870Z,3.62
2023-03-02T06:21:36.361Z,3.74
2023-03-02T06:22:43.198Z,3.87
2023-03-02T06:23:44.730Z,3.94
2023-03-02T06:24:46.278Z,4.15
2023-03-02T06:25:47.799Z,4.33
2023-03-02T06:26:49.301Z,4.47
2023-03-02T06:27:51.867Z,4.59
2023-03-02T06:28:54.091Z,4.64
2023-03-02T06:29:55.811Z,4.74
2023-03-02T06:30:57.346Z,4.82
2023-03-02T06:31:58.998Z,4.96
2023-03-02T06:33:00.589Z,4.97
2023-03-02T06:34:02.346Z,5.02
2023-03-02T06:35:05.625Z,5.06
2023-03-02T06:36:07.317Z,5.06
2023-03-02T06:37:08.937Z,5.06
2023-03-02T06:38:10.528Z,5.07
2023-03-02T06:39:12.347Z,5.09
2023-03-02T06:40:14.260Z,5.05
2023-03-02T06:41:16.899Z,5.12
2023-03-02T06:42:18.425Z,5.22
2023-03-02T06:43:19.935Z,5.28
2023-03-02T06:44:21.549Z,5.14
2023-03-02T06:45:23.069Z,5.16
2023-03-02T06:46:24.675Z,5.20
2023-03-02T06:47:26.274Z,5.28
2023-03-02T06:48:27.793Z,5.31
2023-03-02T06:49:29.317Z,5.27
2023-03-02T06:50:31.452Z,5.25
2023-03-02T06:51:32.998Z,5.25
2023-03-02T06:52:35.040Z,5.24
2023-03-02T06:53:36.590Z,5.16
2023-03-02T06:54:38.104Z,5.04
2023-03-02T06:55:39.637Z,4.95
2023-03-02T06:56:41.354Z,4.96
2023-03-02T06:57:42.857Z,4.92
2023-03-02T06:58:44.399Z,4.84
2023-03-02T06:59:45.948Z,4.82
2023-03-02T07:00:47.476Z,4.64
2023-03-02T07:01:49.013Z,4.65
2023-03-02T07:02:51.819Z,4.69
2023-03-02T07:03:53.406Z,4.70
2023-03-02T07:04:54.955Z,4.73
2023-03-02T07:05:56.474Z,4.82
2023-03-02T07:06:58.208Z,4.86
2023-03-02T07:07:59.834Z,4.89
2023-03-02T07:09:01.885Z,4.98
2023-03-02T07:10:04.291Z,5.03
2023-03-02T07:11:11.006Z,5.00
2023-03-02T07:12:12.554Z,5.06
2023-03-02T07:13:14.086Z,5.12
2023-03-02T07:14:15.591Z,5.11
2023-03-02T07:15:17.165Z,5.15
2023-03-02T07:16:18.871Z,5.16
2023-03-02T07:17:20.545Z,5.15
2023-03-02T07:18:22.270Z,5.18
2023-03-02T07:19:23.857Z,5.20
2023-03-02T07:20:25.434Z,5.24
2023-03-02T07:21:27.144Z,5.29
2023-03-02T07:22:28.731Z,5.37
2023-03-02T07:23:30.375Z,5.32
2023-03-02T07:24:32.228Z,5.30
2023-03-02T07:25:33.804Z,5.41
2023-03-02T07:26:35.459Z,5.51
2023-03-02T07:27:38.046Z,5.55
2023-03-02T07:28:40.488Z,5.73
2023-03-02T07:29:42.052Z,5.77
2023-03-02T07:30:43.644Z,5.90
2023-03-02T07:31:45.268Z,6.01
2023-03-02T07:32:47.977Z,6.18
2023-03-02T07:33:49.530Z,6.29
2023-03-02T07:34:52.515Z,6.56
2023-03-02T07:35:54.091Z,6.79
2023-03-02T07:36:55.695Z,6.45
2023-03-02T07:37:58.890Z,6.58
2023-03-02T07:39:03.921Z,6.83
2023-03-02T07:40:06.669Z,6.97
2023-03-02T07:41:09.611Z,7.06
2023-03-02T07:42:12.614Z,7.15
2023-03-02T07:43:16.318Z,7.35
2023-03-02T07:44:17.929Z,7.44
2023-03-02T07:45:20.804Z,7.71
2023-03-02T07:46:22.399Z,7.99
2023-03-02T07:47:24.161Z,8.20
2023-03-02T07:48:25.724Z,8.56
2023-03-02T07:49:27.311Z,8.95
2023-03-02T07:50:29.640Z,9.14
2023-03-02T07:51:31.427Z,9.31
2023-03-02T07:52:33.126Z,9.56
2023-03-02T07:53:34.947Z,9.73
2023-03-02T07:54:36.688Z,9.97
2023-03-02T07:55:41.741Z,10.15
2023-03-02T07:56:43.513Z,10.29
2023-03-02T07:57:45.528Z,10.45
2023-03-02T07:58:47.959Z,10.64
2023-03-02T07:59:49.929Z,10.64
2023-03-02T08:00:51.527Z,10.68
2023-03-02T08:01:53.145Z,10.72
2023-03-02T08:02:54.884Z,10.90
2023-03-02T08:03:56.554Z,11.09
2023-03-02T08:04:58.205Z,11.23
2023-03-02T08:06:12.953Z,11.26
2023-03-02T08:07:14.532Z,11.32
2023-03-02T08:08:16.173Z,11.06
2023-03-02T08:09:18.168Z,11.05
2023-03-02T08:10:19.702Z,11.01
2023-03-02T08:11:21.447Z,11.01
2023-03-02T08:12:23.030Z,11.03
2023-03-02T08:13:24.582Z,11.05
2023-03-02T08:14:26.693Z,10.96
2023-03-02T08:15:28.288Z,10.91
2023-03-02T08:16:31.092Z,10.80
2023-03-02T08:17:32.840Z,10.81
2023-03-02T08:18:35.349Z,10.88
2023-03-02T08:19:37.080Z,10.85
2023-03-02T08:20:38.683Z,10.79
2023-03-02T08:21:40.220Z,10.65
2023-03-02T08:22:41.919Z,10.61
2023-03-02T08:23:43.944Z,10.33
2023-03-02T08:24:45.608Z,10.28
2023-03-02T08:25:47.230Z,10.30
2023-03-02T08:26:49.150Z,10.15
2023-03-02T08:27:50.709Z,10.03
2023-03-02T08:28:52.528Z,10.05
2023-03-02T08:29:54.113Z,9.69
2023-03-02T08:30:59.700Z,9.38
2023-03-02T08:32:01.389Z,9.01
2023-03-02T08:33:05.983Z,9.02
2023-03-02T08:34:08.607Z,8.97
2023-03-02T08:35:10.256Z,8.82
2023-03-02T08:36:17.714Z,8.62
2023-03-02T08:37:19.612Z,8.40
2023-03-02T08:38:21.203Z,8.24
2023-03-02T08:39:22.739Z,7.97
2023-03-02T08:40:24.282Z,7.88
2023-03-02T08:41:26.016Z,7.86
2023-03-02T08:42:27.582Z,7.73
2023-03-02T08:43:30.104Z,7.68
2023-03-02T08:44:31.914Z,7.64
2023-03-02T08:45:34.650Z,7.63
2023-03-02T08:46:36.267Z,7.55
2023-03-02T08:47:37.936Z,7.44
2023-03-02T08:48:39.646Z,7.35
2023-03-02T08:49:41.228Z,7.24
2023-03-02T08:50:42.785Z,7.13
2023-03-02T08:51:45.900Z,7.05
2023-03-02T08:52:47.463Z,7.02
2023-03-02T08:53:51.085Z,7.00
2023-03-02T08:54:52.836Z,6.97
2023-03-02T08:55:54.507Z,6.99
2023-03-02T08:56:56.085Z,7.00
2023-03-02T08:57:57.815Z,6.95
2023-03-02T08:59:02.027Z,6.89
2023-03-02T09:00:04.210Z,6.83
2023-03-02T09:01:05.814Z,6.87
2023-03-02T09:02:07.705Z,6.84
2023-03-02T09:03:09.290Z,6.78
2023-03-02T09:04:11.452Z,6.75
2023-03-02T09:05:13.018Z,6.72
2023-03-02T09:06:15.296Z,6.73
2023-03-02T09:07:16.911Z,6.72
2023-03-02T09:08:18.565Z,6.71
2023-03-02T09:09:20.316Z,6.72
2023-03-02T09:10:21.930Z,6.67
2023-03-02T09:11:23.622Z,6.68
2023-03-02T09:12:25.163Z,6.64
2023-03-02T09:13:26.762Z,6.67
2023-03-02T09:14:28.381Z,6.71
2023-03-02T09:15:29.976Z,6.75
2023-03-02T09:16:31.575Z,6.81
2023-03-02T09:17:33.196Z,6.87
2023-03-02T09:18:35.255Z,6.94
2023-03-02T09:19:36.830Z,6.93
2023-03-02T09:20:38.358Z,6.88
2023-03-02T09:21:39.941Z,6.80
2023-03-02T09:22:41.483Z,6.84
2023-03-02T09:23:43.208Z,6.74
2023-03-02T09:24:44.777Z,6.58
2023-03-02T09:25:46.666Z,6.54
2023-03-02T09:26:48.226Z,6.54
2023-03-02T09:27:49.792Z,6.55
2023-03-02T09:28:51.342Z,6.58
2023-03-02T09:29:52.896Z,6.57
2023-03-02T09:30:58.328Z,6.56
2023-03-02T09:31:59.996Z,6.59
2023-03-02T09:33:01.788Z,6.66
2023-03-02T09:34:04.076Z,6.71
2023-03-02T09:35:06.064Z,6.65
2023-03-02T09:36:09.951Z,6.69
2023-03-02T09:37:11.559Z,6.71
2023-03-02T09:38:14.652Z,6.76
2023-03-02T09:39:16.424Z,6.72
2023-03-02T09:40:23.509Z,6.73
2023-03-02T09:41:49.915Z,6.69
2023-03-02T09:43:30.354Z,6.70
2023-03-02T09:44:58.052Z,6.65
2023-03-02T09:46:05.428Z,6.72
2023-03-02T09:47:35.506Z,6.77
2023-03-02T09:48:37.419Z,6.73
2023-03-02T09:49:59.751Z,6.73
2023-03-02T09:51:25.679Z,6.80
2023-03-02T09:52:38.375Z,6.91
2023-03-02T09:53:52.930Z,7.03
2023-03-02T09:54:56.172Z,7.06
2023-03-02T09:55:59.097Z,7.05
2023-03-02T09:57:01.155Z,7.08
2023-03-02T09:58:08.406Z,7.06
2023-03-02T09:59:22.853Z,6.96
2023-03-02T10:00:29.843Z,6.90
2023-03-02T10:01:40.387Z,6.82
2023-03-02T10:02:54.135Z,6.77
2023-03-02T10:04:05.492Z,6.79
2023-03-02T10:05:17.115Z,6.77
2023-03-02T10:06:18.710Z,6.82
2023-03-02T10:07:26.939Z,6.88
2023-03-02T10:08:33.517Z,6.97
2023-03-02T10:09:35.096Z,7.11
2023-03-02T10:10:58.469Z,7.23
2023-03-02T10:12:24.176Z,7.29
2023-03-02T10:13:33.685Z,7.39
2023-03-02T10:15:03.580Z,7.48
2023-03-02T10:16:25.386Z,7.44
2023-03-02T10:17:42.072Z,7.30
2023-03-02T10:18:53.324Z,7.32
2023-03-02T10:20:02.629Z,7.28
2023-03-02T10:21:17.872Z,7.17
2023-03-02T10:22:32.529Z,7.14
2023-03-02T10:23:39.166Z,7.15
2023-03-02T10:24:56.193Z,7.27
2023-03-02T10:26:13.258Z,7.36
2023-03-02T10:27:39.739Z,7.42
2023-03-02T10:28:47.349Z,7.45
2023-03-02T10:29:48.792Z,7.43
2023-03-02T10:31:07.709Z,7.49
2023-03-02T10:32:22.858Z,7.53
2023-03-02T10:33:26.923Z,7.50
2023-03-02T10:34:30.640Z,7.60
2023-03-02T10:35:33.705Z,7.66
2023-03-02T10:36:41.025Z,7.69
2023-03-02T10:37:42.731Z,7.70
2023-03-02T10:38:44.436Z,7.73
2023-03-02T10:39:45.954Z,7.81
2023-03-02T10:40:48.756Z,7.84
2023-03-02T10:41:57.194Z,7.89
2023-03-02T10:42:59.889Z,7.97
2023-03-02T10:44:07.047Z,8.06
2023-03-02T10:45:08.562Z,8.08
2023-03-02T10:46:12.106Z,8.10
2023-03-02T10:47:28.713Z,8.10
2023-03-02T10:48:30.457Z,8.12
2023-03-02T10:49:35.579Z,8.08
2023-03-02T10:50:37.490Z,8.00
2023-03-02T10:51:39.010Z,7.96
2023-03-02T10:52:59.729Z,8.02
2023-03-02T10:54:04.327Z,8.06
2023-03-02T10:55:13.496Z,8.13
2023-03-02T10:56:21.084Z,8.21
2023-03-02T10:58:02.414Z,8.32
2023-03-02T10:59:39.473Z,8.38
2023-03-02T11:00:40.997Z,8.35
2023-03-02T11:01:42.558Z,8.35
2023-03-02T11:02:56.037Z,8.37
2023-03-02T11:04:02.069Z,8.41
2023-03-02T11:05:15.799Z,8.43
2023-03-02T11:06:21.802Z,8.51
2023-03-02T11:07:25.918Z,8.52
2023-03-02T11:08:28.624Z,8.47
2023-03-02T11:09:30.149Z,8.46
2023-03-02T11:10:35.382Z,8.51
2023-03-02T11:11:37.483Z,8.54
2023-03-02T11:12:46.451Z,8.60
2023-03-02T11:13:48.003Z,8.68
2023-03-02T11:14:49.752Z,8.66
2023-03-02T11:15:53.679Z,8.66
2023-03-02T11:16:55.254Z,8.70
2023-03-02T11:18:19.445Z,8.69
2023-03-02T11:19:36.282Z,8.66
2023-03-02T11:20:41.962Z,8.67
2023-03-02T11:21:50.565Z,8.72
2023-03-02T11:22:57.846Z,8.75
2023-03-02T11:24:02.282Z,8.70
2023-03-02T11:25:08.238Z,8.61
2023-03-02T11:26:25.755Z,8.55
2023-03-02T11:27:33.272Z,8.54
2023-03-02T11:28:53.652Z,8.48
2023-03-02T11:30:12.370Z,8.43
2023-03-02T11:31:32.645Z,8.45
2023-03-02T11:32:45.694Z,8.51
2023-03-02T11:34:16.666Z,8.58
2023-03-02T11:35:28.936Z,8.59
2023-03-02T11:36:42.841Z,8.56
2023-03-02T11:37:53.448Z,8.48
2023-03-02T11:38:55.373Z,8.51
2023-03-02T11:40:15.942Z,8.61
2023-03-02T11:41:17.450Z,8.67
2023-03-02T11:42:29.542Z,8.66
2023-03-02T11:43:31.157Z,8.64
2023-03-02T11:44:32.673Z,8.61
2023-03-02T11:45:43.984Z,8.68
2023-03-02T11:46:53.683Z,8.72
2023-03-02T11:48:03.678Z,8.69
2023-03-02T11:49:14.717Z,8.62
2023-03-02T11:50:16.793Z,8.65
2023-03-02T11:51:26.212Z,8.75
2023-03-02T11:52:32.066Z,8.81
2023-03-02T11:53:43.258Z,8.84
2023-03-02T11:54:53.620Z,8.89
2023-03-02T11:55:55.278Z,8.81
2023-03-02T11:56:56.819Z,8.74
2023-03-02T11:59:27.647Z,8.70
2023-03-02T12:00:42.059Z,8.58
2023-03-02T12:01:48.266Z,8.52
2023-03-02T12:03:05.773Z,8.50
2023-03-02T12:04:46.815Z,8.56
2023-03-02T12:05:53.861Z,8.61
2023-03-02T12:06:55.658Z,8.64
2023-03-02T12:08:27.690Z,8.63
2023-03-02T12:09:33.513Z,8.49
2023-03-02T12:10:41.749Z,8.44
2023-03-02T12:11:45.759Z,8.48
2023-03-02T12:12:59.351Z,8.41
2023-03-02T12:14:04.670Z,8.39
2023-03-02T12:15:28.515Z,8.42
2023-03-02T12:16:37.763Z,8.44
2023-03-02T12:17:39.358Z,8.43
2023-03-02T12:18:44.609Z,8.48
2023-03-02T12:19:47.647Z,8.39
2023-03-02T12:21:08.058Z,8.46
2023-03-02T12:22:10.710Z,8.50
2023-03-02T12:23:23.455Z,8.52
2023-03-02T12:24:28.952Z,8.49
2023-03-02T12:25:39.837Z,8.46
2023-03-02T12:26:41.371Z,8.51
2023-03-02T12:27:42.865Z,8.49
2023-03-02T12:28:57.760Z,8.51
2023-03-02T12:30:17.019Z,8.58
2023-03-02T12:31:18.724Z,8.50
2023-03-02T12:32:29.886Z,8.51
2023-03-02T12:33:31.526Z,8.55
2023-03-02T12:34:42.894Z,8.50
2023-03-02T12:35:47.206Z,8.54
2023-03-02T12:36:50.906Z,8.51
2023-03-02T12:38:00.541Z,8.42
2023-03-02T12:39:17.417Z,8.41
2023-03-02T12:40:47.685Z,8.46
2023-03-02T12:42:34.161Z,8.50
2023-03-02T12:43:37.306Z,8.47
2023-03-02T12:45:03.131Z,8.43
2023-03-02T12:46:30.416Z,8.39
2023-03-02T12:47:33.257Z,8.29
2023-03-02T12:48:59.423Z,8.26
2023-03-02T12:50:05.397Z,8.39
2023-03-02T12:51:17.665Z,8.40
2023-03-02T12:52:31.942Z,8.42
2023-03-02T12:53:33.523Z,8.37
2023-03-02T12:54:35.082Z,8.38
2023-03-02T12:55:38.552Z,8.30
2023-03-02T12:56:40.442Z,8.22
2023-03-02T12:57:50.402Z,8.22
2023-03-02T12:58:53.789Z,8.20
2023-03-02T12:59:58.692Z,8.30
2023-03-02T13:01:03.450Z,8.37
2023-03-02T13:02:18.591Z,8.32
2023-03-02T13:03:20.516Z,8.34
2023-03-02T13:04:26.816Z,8.38
2023-03-02T13:05:35.133Z,8.33
2023-03-02T13:06:39.106Z,8.32
2023-03-02T13:07:46.027Z,8.26
2023-03-02T13:08:51.092Z,8.24
2023-03-02T13:09:56.869Z,8.28
2023-03-02T13:11:01.967Z,8.32
2023-03-02T13:12:03.721Z,8.33
2023-03-02T13:13:27.578Z,8.32
2023-03-02T13:14:29.232Z,8.35
2023-03-02T13:15:30.857Z,8.37
2023-03-02T13:16:34.667Z,8.41
2023-03-02T13:17:36.647Z,8.40
2023-03-02T13:18:38.456Z,8.35
2023-03-02T13:19:40.082Z,8.34
2023-03-02T13:20:41.847Z,8.30
2023-03-02T13:21:43.922Z,8.30
2023-03-02T13:22:45.607Z,8.22
2023-03-02T13:23:51.373Z,8.17
2023-03-02T13:25:01.726Z,8.23
2023-03-02T13:26:05.619Z,8.23
2023-03-02T13:27:15.414Z,8.22
2023-03-02T13:28:32.284Z,8.26
2023-03-02T13:29:34.096Z,8.32
2023-03-02T13:30:36.985Z,8.29
2023-03-02T13:31:38.781Z,8.24
2023-03-02T13:32:41.877Z,8.25
2023-03-02T13:33:48.345Z,8.23
2023-03-02T13:34:59.160Z,8.22
2023-03-02T13:36:00.967Z,8.23
2023-03-02T13:37:02.633Z,8.22
2023-03-02T13:38:16.877Z,8.20
2023-03-02T13:39:22.200Z,8.20
2023-03-02T13:40:34.385Z,8.24
2023-03-02T13:41:37.315Z,8.26
2023-03-02T13:42:40.871Z,8.25
2023-03-02T13:43:42.463Z,8.31
2023-03-02T13:44:44.042Z,8.38
2023-03-02T13:45:57.102Z,8.40
2023-03-02T13:46:59.654Z,8.34
2023-03-02T13:48:13.848Z,8.30
2023-03-02T13:49:26.045Z,8.36
2023-03-02T13:50:31.993Z,8.37
2023-03-02T13:51:36.889Z,8.33
2023-03-02T13:52:38.450Z,8.22
2023-03-02T13:53:45.437Z,8.24
2023-03-02T13:54:47.205Z,8.21
2023-03-02T13:55:48.961Z,8.16
2023-03-02T13:56:52.111Z,8.13
2023-03-02T13:57:54.629Z,8.14
2023-03-02T13:58:56.235Z,8.17
2023-03-02T13:59:59.323Z,8.25
2023-03-02T14:01:00.984Z,8.33
2023-03-02T14:02:02.604Z,8.35
2023-03-02T14:03:20.897Z,8.39
2023-03-02T14:04:22.934Z,8.39
2023-03-02T14:05:26.410Z,8.41
2023-03-02T14:06:28.063Z,8.44
2023-03-02T14:07:29.593Z,8.47
2023-03-02T14:08:31.202Z,8.50
2023-03-02T14:09:32.748Z,8.53
2023-03-02T14:10:34.275Z,8.46